AG7GN Bellingham WA US current weather conditions

sailwx.info

Wind from 151 at 6 knots gusting 16

Air temperature 18.9° C
Dewpoint 11.7° C

Last reported at 2019-Sep-17 20:01 UTC.
Time now 2019-Sep-17 20:41 UTC

Location: N 48°45' W 122°28'.
View on Google Maps.

See reports from other nearby stations

  
Tides and Currents Weather Stations Pressure Air Temp Water Temp Dewpoint Dewpoint Depression Visibility Wind Speed Wind Dir Waves Ship Positions
date/time (UTC)wind fromknots sea level pressurealtimeterstation pressurevisibilityair tempwater tempwave heightnotes
2019-Sep-17 20:01 151 6 gusting 16 18.9
2019-Sep-17 19:56 155 4 gusting 14 18.9
2019-Sep-17 19:51 158 6 gusting 14 18.9
2019-Sep-17 19:46 117 5 gusting 14 18.3
2019-Sep-17 19:41 276 4 gusting 13 18.3
2019-Sep-17 19:36 125 5 gusting 11 18.3
2019-Sep-17 19:31 140 6 gusting 16 18.3
2019-Sep-17 19:26 223 7 gusting 16 18.3
2019-Sep-17 19:21 111 7 gusting 16 18.3
2019-Sep-17 19:16 111 6 gusting 14 18.3
2019-Sep-17 19:11 119 6 gusting 19 18.3
2019-Sep-17 19:06 167 6 gusting 19 18.3
2019-Sep-17 19:01 113 3 gusting 16 18.9
2019-Sep-17 18:56 330 2 gusting 8 18.9
2019-Sep-17 18:51 146 3 gusting 8 18.9
2019-Sep-17 18:46 131 3 gusting 8 18.3
2019-Sep-17 18:41 130 2 gusting 8 18.3
2019-Sep-17 18:36 133 1 gusting 6 18.3
2019-Sep-17 18:31 359 0 gusting 4 17.8
2019-Sep-17 18:26 067 0 gusting 4 17.2
2019-Sep-17 18:21 001 1 gusting 4 16.7
2019-Sep-17 18:16 072 2 gusting 8 16.7
2019-Sep-17 18:11 058 2 gusting 8 16.7
2019-Sep-17 18:06 153 2 gusting 6 16.7
2019-Sep-17 18:01 072 2 gusting 7 16.7
2019-Sep-17 17:56 098 3 gusting 10 16.7
2019-Sep-17 17:51 129 3 gusting 10 16.7
2019-Sep-17 17:46 014 1 gusting 5 16.7
2019-Sep-17 17:41 082 1 gusting 6 16.1
2019-Sep-17 17:36 146 2 gusting 8 15.6
2019-Sep-17 17:31 028 3 gusting 8 15.0
2019-Sep-17 17:26 064 3 gusting 8 14.4
2019-Sep-17 17:21 095 3 gusting 8 13.9
2019-Sep-17 17:16 045 2 gusting 6 13.9
2019-Sep-17 17:11 056 1 gusting 6 13.9
2019-Sep-17 17:06 052 0 gusting 3 14.4
2019-Sep-17 17:01 081 1 gusting 5 14.4
2019-Sep-17 16:56 122 1 gusting 5 14.4
2019-Sep-17 16:51 105 1 gusting 6 14.4
2019-Sep-17 16:46 101 2 gusting 6 14.4
2019-Sep-17 16:41 105 1 gusting 6 14.4
2019-Sep-17 16:36 079 2 gusting 6 14.4
2019-Sep-17 16:31 075 1 gusting 4 14.4
2019-Sep-17 16:26 011 1 gusting 4 14.4
2019-Sep-17 16:21 146 0 gusting 3 14.4
2019-Sep-17 16:16 072 13.9
2019-Sep-17 16:11 106 0 gusting 2 13.9
2019-Sep-17 16:06 224 0 gusting 2 13.9
2019-Sep-17 16:01 350 0 gusting 4 13.9
2019-Sep-17 15:56 143 2 gusting 6 14.4
2019-Sep-17 15:51 091 2 gusting 6 14.4
2019-Sep-17 15:46 112 2 gusting 6 14.4
2019-Sep-17 15:41 060 2 gusting 6 14.4
2019-Sep-17 15:36 062 2 gusting 7 13.9
2019-Sep-17 15:31 214 2 gusting 7 13.9
2019-Sep-17 15:26 122 1 gusting 6 13.9
2019-Sep-17 15:21 027 1 gusting 4 13.9
2019-Sep-17 15:16 102 1 gusting 6 13.9
2019-Sep-17 15:11 091 1 gusting 6 13.9
2019-Sep-17 15:06 105 1 gusting 4 13.9
2019-Sep-17 15:01 101 1 gusting 4 13.3
2019-Sep-17 14:56 214 1 gusting 5 13.9
2019-Sep-17 14:51 119 2 gusting 6 13.9
2019-Sep-17 14:46 079 2 gusting 6 13.9
2019-Sep-17 14:41 122 3 gusting 8 13.9
2019-Sep-17 14:36 127 3 gusting 8 14.4
2019-Sep-17 14:31 098 3 gusting 7 14.4
2019-Sep-17 14:26 117 3 gusting 9 15.0
2019-Sep-17 14:21 103 3 gusting 9 15.0
2019-Sep-17 14:16 135 2 gusting 5 15.0
2019-Sep-17 14:11 186 3 gusting 11 15.0
2019-Sep-17 14:06 084 4 gusting 11 15.6
2019-Sep-17 14:01 081 4 gusting 10 15.6
2019-Sep-17 13:56 108 5 gusting 14 15.6
2019-Sep-17 13:51 148 5 gusting 14 15.6
2019-Sep-17 13:46 107 5 gusting 13 16.1
2019-Sep-17 13:41 110 6 gusting 12 16.1
2019-Sep-17 13:36 153 5 gusting 12 16.1
2019-Sep-17 13:31 086 5 gusting 16 16.1
2019-Sep-17 13:26 196 5 gusting 16 16.1
2019-Sep-17 13:21 105 3 gusting 10 16.1
2019-Sep-17 13:16 207 5 gusting 11 16.1
2019-Sep-17 13:11 169 5 gusting 11 16.1
2019-Sep-17 13:06 130 5 gusting 11 15.6
2019-Sep-17 13:01 091 5 gusting 13 15.6
2019-Sep-17 12:56 107 6 gusting 17 15.6
2019-Sep-17 12:51 117 4 gusting 17 15.6
2019-Sep-17 12:46 132 3 gusting 10 15.6
2019-Sep-17 12:40 104 4 gusting 13 15.6
2019-Sep-17 12:35 169 6 gusting 17 15.6
2019-Sep-17 12:30 243 6 gusting 17 15.6
2019-Sep-17 12:26 113 4 gusting 15 15.6
2019-Sep-17 12:20 160 4 gusting 20 15.6
2019-Sep-17 12:15 228 4 gusting 20 15.6
2019-Sep-17 12:10 128 2 gusting 13 15.6
2019-Sep-17 12:06 167 4 gusting 13 15.6
2019-Sep-17 12:00 089 4 gusting 12 15.6
2019-Sep-17 11:55 154 3 gusting 12 15.6
2019-Sep-17 11:50 092 3 gusting 10 15.6
2019-Sep-17 11:45 084 4 gusting 10 15.6
2019-Sep-17 11:40 106 3 gusting 10 15.6
2019-Sep-17 11:35 215 4 gusting 13 15.6
2019-Sep-17 11:30 103 3 gusting 13 15.6
2019-Sep-17 11:26 136 3 gusting 12 15.6
2019-Sep-17 11:21 106 4 gusting 12 15.6
2019-Sep-17 11:15 191 5 gusting 13 15.6
2019-Sep-17 11:11 187 5 gusting 13 15.6
2019-Sep-17 11:05 139 4 gusting 13 15.0
2019-Sep-17 11:00 106 3 gusting 13 15.0
2019-Sep-17 10:55 076 3 gusting 13 15.0
2019-Sep-17 10:50 129 2 gusting 13 15.0
2019-Sep-17 10:45 205 3 gusting 8 15.0
2019-Sep-17 10:40 144 3 gusting 15 15.0
2019-Sep-17 10:35 130 3 gusting 15 15.6
2019-Sep-17 10:30 239 3 gusting 9 15.6
2019-Sep-17 10:26 150 4 gusting 14 15.6
2019-Sep-17 10:20 145 5 gusting 14 15.6
2019-Sep-17 10:15 246 5 gusting 11 15.6
2019-Sep-17 10:10 129 5 gusting 12 15.6
2019-Sep-17 10:05 224 5 gusting 12 15.6
2019-Sep-17 10:00 159 4 gusting 12 15.6
2019-Sep-17 09:55 142 4 gusting 12 15.6
2019-Sep-17 09:50 137 3 gusting 11 15.6
2019-Sep-17 09:45 108 3 gusting 15 15.6
2019-Sep-17 09:40 281 4 gusting 15 15.6
2019-Sep-17 09:35 124 5 gusting 14 15.6
2019-Sep-17 09:30 101 4 gusting 14 15.6
2019-Sep-17 09:25 110 4 gusting 16 15.6
2019-Sep-17 09:20 113 3 gusting 16 15.6
2019-Sep-17 09:15 191 2 gusting 7 15.6
2019-Sep-17 09:10 086 3 gusting 6 15.6
2019-Sep-17 09:05 108 3 gusting 12 15.6
2019-Sep-17 09:00 238 4 gusting 12 15.6
2019-Sep-17 08:55 208 4 gusting 9 15.6
2019-Sep-17 08:50 030 4 gusting 10 15.6
2019-Sep-17 08:45 093 3 gusting 10 15.6
2019-Sep-17 08:40 134 2 gusting 9 15.6
2019-Sep-17 08:35 126 3 gusting 8 15.6
2019-Sep-17 08:30 077 4 gusting 11 15.6
2019-Sep-17 08:25 212 4 gusting 11 15.6
2019-Sep-17 08:20 130 4 gusting 12 15.6
2019-Sep-17 08:15 169 4 gusting 12 15.6
2019-Sep-17 08:10 099 3 gusting 11 15.6
2019-Sep-17 08:05 094 3 gusting 11 15.0
2019-Sep-17 08:00 116 3 gusting 9 15.0
2019-Sep-17 07:55 134 3 gusting 9 15.0
2019-Sep-17 07:50 227 3 gusting 9 15.0
2019-Sep-17 07:45 225 3 gusting 9 15.0
2019-Sep-17 07:40 066 2 gusting 10 15.0
2019-Sep-17 07:35 107 3 gusting 10 15.0
2019-Sep-17 07:30 163 3 gusting 8 15.0
2019-Sep-17 07:25 106 3 gusting 8 15.0
2019-Sep-17 07:20 224 3 gusting 9 15.0
2019-Sep-17 07:15 113 4 gusting 9 15.0
2019-Sep-17 07:10 119 4 gusting 11 15.0
2019-Sep-17 07:05 133 3 gusting 11 15.0
2019-Sep-17 07:00 093 3 gusting 9 15.0
2019-Sep-17 06:55 227 3 gusting 10 15.0
2019-Sep-17 06:50 124 3 gusting 10 15.0
2019-Sep-17 06:45 143 2 gusting 9 15.0
2019-Sep-17 06:40 202 3 gusting 10 15.0
2019-Sep-17 06:35 232 3 gusting 10 15.0
2019-Sep-17 06:30 285 2 gusting 7 14.4
2019-Sep-17 06:25 193 2 gusting 7 14.4
2019-Sep-17 06:20 108 2 gusting 7 14.4
2019-Sep-17 06:15 165 2 gusting 7 14.4
2019-Sep-17 06:10 160 3 gusting 7 14.4
2019-Sep-17 06:05 191 2 gusting 9 14.4
2019-Sep-17 06:00 091 2 gusting 9 14.4
2019-Sep-17 05:55 032 2 gusting 6 14.4
2019-Sep-17 05:50 113 1 gusting 6 14.4
2019-Sep-17 05:45 101 0 gusting 2 14.4
2019-Sep-17 05:40 114 0 gusting 4 14.4
2019-Sep-17 05:35 270 0 gusting 4 14.4
2019-Sep-17 05:30 114 0 gusting 1 14.4
2019-Sep-17 05:25 106 13.9
2019-Sep-17 05:20 067 0 gusting 5 13.9
2019-Sep-17 05:15 132 1 gusting 5 13.9
2019-Sep-17 05:10 113 0 gusting 5 13.9
2019-Sep-17 05:05 070 0 gusting 1 13.9
2019-Sep-17 05:00 115 0 gusting 2 14.4
2019-Sep-17 04:55 157 0 gusting 3 14.4
2019-Sep-17 04:50 185 0 gusting 5 14.4
2019-Sep-17 04:45 120 1 gusting 5 14.4
2019-Sep-17 04:40 109 2 gusting 5 14.4
2019-Sep-17 04:35 107 1 gusting 6 14.4
2019-Sep-17 04:30 152 0 gusting 6 14.4
2019-Sep-17 04:25 136 0 gusting 5 14.4
2019-Sep-17 04:20 169 1 gusting 5 14.4
2019-Sep-17 04:15 127 1 gusting 4 14.4
2019-Sep-17 04:10 251 0 gusting 3 15.0
2019-Sep-17 04:05 114 0 gusting 3 15.0
2019-Sep-17 04:00 164 0 gusting 2 15.0
2019-Sep-17 03:55 050 0 gusting 2 15.0
2019-Sep-17 03:50 113 0 gusting 1 15.0
2019-Sep-17 03:45 102 0 gusting 1 15.0
2019-Sep-17 03:40 085 0 gusting 1 15.0
2019-Sep-17 03:35 116 15.0
2019-Sep-17 03:30 117 15.0
2019-Sep-17 03:25 104 15.0
2019-Sep-17 03:20 225 15.0
2019-Sep-17 03:15 225 15.6
2019-Sep-17 03:10 225 15.6
2019-Sep-17 03:05 226 15.6
2019-Sep-17 03:00 225 15.6
2019-Sep-17 02:55 162 15.6
2019-Sep-17 02:50 130 0 gusting 1 15.6
2019-Sep-17 02:45 105 0 gusting 1 15.6
2019-Sep-17 02:40 088 0 gusting 2 15.6
2019-Sep-17 02:35 124 15.6
2019-Sep-17 02:30 200 15.6
2019-Sep-17 02:25 143 15.6
2019-Sep-17 02:20 200 0 gusting 1 15.6
2019-Sep-17 02:15 210 0 gusting 1 15.6
2019-Sep-17 02:10 160 0 gusting 1 16.1
2019-Sep-17 02:05 127 16.1
2019-Sep-17 02:00 230 16.1
2019-Sep-17 01:55 230 16.1
2019-Sep-17 01:50 204 16.1
2019-Sep-17 01:45 203 0 gusting 2 16.7
2019-Sep-17 01:40 133 0 gusting 2 16.7
2019-Sep-17 01:35 231 16.7
2019-Sep-17 01:30 260 0 gusting 4 16.7
2019-Sep-17 01:25 264 1 gusting 5 16.7
2019-Sep-17 01:20 225 0 gusting 5 16.7
2019-Sep-17 01:15 214 17.2
2019-Sep-17 01:10 235 17.2
2019-Sep-17 01:05 193 0 gusting 2 16.7
2019-Sep-17 01:00 205 0 gusting 3 16.7
2019-Sep-17 00:55 136 1 gusting 3 16.7
2019-Sep-17 00:50 132 1 gusting 3 16.7
2019-Sep-17 00:45 134 1 gusting 3 16.7
2019-Sep-17 00:40 126 1 gusting 5 16.7
2019-Sep-17 00:35 241 1 gusting 5 16.7
2019-Sep-17 00:30 270 2 gusting 5 16.7
2019-Sep-17 00:25 239 2 gusting 6 17.2
2019-Sep-17 00:20 253 3 gusting 6 17.2
2019-Sep-17 00:15 270 3 gusting 6 17.8
2019-Sep-17 00:10 243 2 gusting 6 17.8
2019-Sep-17 00:05 233 2 gusting 6 17.8
2019-Sep-17 00:00 207 3 gusting 8 17.8
2019-Sep-16 23:55 285 4 gusting 9 18.3
2019-Sep-16 23:50 208 3 gusting 9 18.3
2019-Sep-16 23:45 233 2 gusting 7 18.9
2019-Sep-16 23:40 131 1 gusting 6 18.9
2019-Sep-16 23:35 212 0 gusting 4 18.9
2019-Sep-16 23:30 247 1 gusting 4 18.9
2019-Sep-16 23:25 231 1 gusting 5 18.3
2019-Sep-16 23:20 229 1 gusting 5 18.3
2019-Sep-16 23:15 235 1 gusting 6 18.3
2019-Sep-16 23:10 113 1 gusting 6 18.3
2019-Sep-16 23:05 212 2 gusting 6 18.3
2019-Sep-16 23:00 189 2 gusting 5 18.3
2019-Sep-16 22:55 268 2 gusting 5 18.3
2019-Sep-16 22:50 238 2 gusting 5 18.3
2019-Sep-16 22:45 244 2 gusting 6 18.9
2019-Sep-16 22:40 176 2 gusting 6 18.9
2019-Sep-16 22:35 247 2 gusting 6 18.9
2019-Sep-16 22:30 233 2 gusting 6 18.3
2019-Sep-16 22:25 224 2 gusting 5 18.3
2019-Sep-16 22:20 279 1 gusting 5 18.9
2019-Sep-16 22:15 164 1 gusting 6 18.3
2019-Sep-16 22:10 201 2 gusting 6 18.3
2019-Sep-16 22:05 277 1 gusting 6 18.3
2019-Sep-16 22:00 285 2 gusting 4 18.3
2019-Sep-16 21:55 250 1 gusting 5 18.3
2019-Sep-16 21:50 275 1 gusting 6 17.8
2019-Sep-16 21:45 276 1 gusting 6 17.8
2019-Sep-16 21:40 260 2 gusting 5 17.8
2019-Sep-16 21:35 237 2 gusting 5 17.8
2019-Sep-16 21:30 235 2 gusting 6 17.8
2019-Sep-16 21:25 278 2 gusting 6 17.8
2019-Sep-16 21:20 278 2 gusting 6 17.8
2019-Sep-16 21:15 278 2 gusting 6 18.3
2019-Sep-16 21:10 269 1 gusting 3 18.9
2019-Sep-16 21:05 240 2 gusting 6 18.3
2019-Sep-16 21:00 221 3 gusting 8 17.8
2019-Sep-16 20:55 215 3 gusting 8 17.8
2019-Sep-16 20:50 218 2 gusting 7 17.8
2019-Sep-16 20:45 207 1 gusting 6 18.3
2019-Sep-16 20:40 274 1 gusting 6 17.8
2019-Sep-16 20:35 283 1 gusting 7 18.3
2019-Sep-16 20:30 283 2 gusting 7 17.8
2019-Sep-16 20:25 247 2 gusting 6 17.2
2019-Sep-16 20:20 240 2 gusting 6 17.2
2019-Sep-16 20:15 198 1 gusting 6 17.2
2019-Sep-16 20:10 252 2 gusting 8 16.7
2019-Sep-16 20:05 219 2 gusting 8 16.1
2019-Sep-16 20:00 246 3 gusting 6 16.1
2019-Sep-16 19:55 268 2 gusting 6 16.1
2019-Sep-16 19:50 288 1 gusting 6 16.1
2019-Sep-16 19:45 246 2 gusting 6 16.1
2019-Sep-16 19:40 207 1 gusting 6 16.1
2019-Sep-16 19:35 223 1 gusting 5 16.1
2019-Sep-16 19:30 248 2 gusting 7 16.1
2019-Sep-16 19:25 215 2 gusting 7 16.1
2019-Sep-16 19:20 233 1 gusting 5 16.1
2019-Sep-16 19:15 200 2 gusting 11 16.7
2019-Sep-16 19:10 245 3 gusting 11 16.7
2019-Sep-16 19:05 226 3 gusting 10 16.7
2019-Sep-16 19:00 252 3 gusting 9 16.7
2019-Sep-16 18:50 210 2 gusting 8 16.1
2019-Sep-16 18:45 224 2 gusting 8 16.1
2019-Sep-16 18:40 236 2 gusting 10 16.1
2019-Sep-16 18:35 251 2 gusting 10 16.7
2019-Sep-16 18:30 299 1 gusting 5 16.7
2019-Sep-16 18:25 319 1 gusting 3 16.7
2019-Sep-16 18:20 320 1 gusting 3 16.7
2019-Sep-16 18:15 319 1 gusting 3 16.7
2019-Sep-16 18:10 319 0 gusting 3 16.1
2019-Sep-16 18:05 320 0 gusting 1 16.1
2019-Sep-16 18:00 321 0 gusting 1 16.1
2019-Sep-16 17:50 327 15.6
2019-Sep-16 17:40 324 0 gusting 1 15.6
2019-Sep-16 17:35 323 0 gusting 1 15.6
2019-Sep-16 17:30 314 0 gusting 1 15.6
2019-Sep-16 17:25 321 0 gusting 2 15.6
2019-Sep-16 17:20 321 0 gusting 2 15.6
2019-Sep-16 17:10 319 0 gusting 2 15.6
2019-Sep-16 17:05 325 0 gusting 2 15.6
2019-Sep-16 17:00 325 0 gusting 2 15.6
2019-Sep-16 16:55 320 0 gusting 2 15.6
2019-Sep-16 16:50 325 0 gusting 2 15.6
2019-Sep-16 16:45 012 0 gusting 1 15.6
2019-Sep-16 16:40 014 15.0
2019-Sep-16 16:35 008 15.0
2019-Sep-16 16:30 011 15.0
2019-Sep-16 16:25 012 14.4
2019-Sep-16 16:20 012 14.4
2019-Sep-16 16:15 011 14.4
2019-Sep-16 16:10 011 14.4
2019-Sep-16 16:05 011 13.9
2019-Sep-16 16:00 009 13.9
2019-Sep-16 15:55 040 13.9
2019-Sep-16 15:50 040 13.9
2019-Sep-16 15:45 040 13.9
2019-Sep-16 15:40 040 13.9
2019-Sep-16 15:35 040 13.9
2019-Sep-16 15:30 040 0 gusting 0 13.9
2019-Sep-16 15:25 041 0 gusting 1 13.9
2019-Sep-16 15:20 042 0 gusting 1 13.3
2019-Sep-16 15:15 042 13.3
2019-Sep-16 15:10 042 13.3
2019-Sep-16 15:05 045 13.3
2019-Sep-16 15:00 045 13.3
2019-Sep-16 14:55 045 13.3
2019-Sep-16 14:50 045 13.3
2019-Sep-16 14:45 046 13.3
2019-Sep-16 14:40 046 13.3
2019-Sep-16 14:35 045 13.3
2019-Sep-16 14:30 045 13.3
2019-Sep-16 14:25 024 13.3
2019-Sep-16 14:20 019 13.3
2019-Sep-16 14:15 013 13.3
2019-Sep-16 14:10 013 13.3
2019-Sep-16 14:05 013 13.3
2019-Sep-16 14:00 013 12.8
2019-Sep-16 13:55 013 12.8
2019-Sep-16 13:50 013 12.8
2019-Sep-16 13:45 013 12.8
2019-Sep-16 13:40 011 12.8
2019-Sep-16 13:35 033 12.8
2019-Sep-16 13:30 041 12.8
2019-Sep-16 13:25 051 12.8
2019-Sep-16 13:20 051 12.8
2019-Sep-16 13:15 051 12.8
2019-Sep-16 13:10 051 12.8
2019-Sep-16 13:05 051 12.8
2019-Sep-16 13:00 051 12.8
2019-Sep-16 12:55 052 12.8
2019-Sep-16 12:50 052 12.8
2019-Sep-16 12:45 053 12.8
2019-Sep-16 12:40 054 12.8
2019-Sep-16 12:35 047 0 gusting 2 12.8
2019-Sep-16 12:30 048 0 gusting 2 12.8
2019-Sep-16 12:25 058 0 gusting 2 12.8
2019-Sep-16 12:20 051 0 gusting 1 12.8
2019-Sep-16 12:15 051 0 gusting 1 12.8
2019-Sep-16 12:10 052 0 gusting 1 13.3
2019-Sep-16 12:05 061 0 gusting 1 13.3
2019-Sep-16 12:00 051 0 gusting 1 13.3
2019-Sep-16 11:55 052 0 gusting 1 13.3
2019-Sep-16 11:50 049 0 gusting 1 12.8
2019-Sep-16 11:44 051 1 gusting 3 13.3
2019-Sep-16 11:39 047 2 gusting 3 12.8
2019-Sep-16 11:34 053 1 gusting 3 12.8
2019-Sep-16 11:29 056 0 gusting 3 12.8
2019-Sep-16 11:24 053 12.8
2019-Sep-16 11:19 056 12.8
2019-Sep-16 11:14 048 0 gusting 2 12.8
2019-Sep-16 11:09 055 0 gusting 2 12.8
2019-Sep-16 11:04 033 0 gusting 2 12.8
2019-Sep-16 10:59 046 1 gusting 2 12.8
2019-Sep-16 10:54 052 0 gusting 2 12.8
2019-Sep-16 10:49 047 12.8
2019-Sep-16 10:44 049 12.8
2019-Sep-16 10:39 054 0 gusting 1 12.8
2019-Sep-16 10:34 056 0 gusting 1 12.8
2019-Sep-16 10:29 051 0 gusting 1 13.3
2019-Sep-16 10:24 055 0 gusting 1 13.3
2019-Sep-16 10:19 048 13.3
2019-Sep-16 10:14 050 13.3
2019-Sep-16 10:09 051 0 gusting 1 13.3
2019-Sep-16 10:04 051 0 gusting 1 13.3
2019-Sep-16 09:59 055 13.3
2019-Sep-16 09:54 050 13.3
2019-Sep-16 09:49 068 0 gusting 1 13.3
2019-Sep-16 09:44 072 0 gusting 1 13.3
2019-Sep-16 09:39 071 0 gusting 1 13.9
2019-Sep-16 09:34 074 0 gusting 1 13.9
2019-Sep-16 09:29 096 0 gusting 1 13.9
2019-Sep-16 09:24 068 0 gusting 1 13.9
2019-Sep-16 09:19 068 0 gusting 1 13.9
2019-Sep-16 09:14 085 13.9
2019-Sep-16 09:09 092 13.9
2019-Sep-16 09:04 093 0 gusting 2 13.9
2019-Sep-16 08:59 093 1 gusting 5 13.9
2019-Sep-16 08:54 053 0 gusting 5 13.9
2019-Sep-16 08:49 077 0 gusting 1 13.9
2019-Sep-16 08:44 096 0 gusting 1 13.9
2019-Sep-16 08:39 108 0 gusting 2 13.9
2019-Sep-16 08:34 108 0 gusting 2 13.9
2019-Sep-16 08:29 083 0 gusting 1 13.9
2019-Sep-16 08:24 071 0 gusting 2 13.9
2019-Sep-16 08:19 085 0 gusting 2 14.4
2019-Sep-16 08:14 091 0 gusting 1 14.4
2019-Sep-16 08:09 091 0 gusting 1 14.4
2019-Sep-16 08:04 094 0 gusting 2 14.4
2019-Sep-16 07:59 091 1 gusting 2 14.4
2019-Sep-16 07:54 104 2 gusting 3 14.4
2019-Sep-16 07:49 089 1 gusting 3 14.4
2019-Sep-16 07:44 097 0 gusting 3 14.4
2019-Sep-16 07:39 091 0 gusting 3 14.4
2019-Sep-16 07:34 099 1 gusting 3 14.4
2019-Sep-16 07:29 102 1 gusting 3 14.4
2019-Sep-16 07:24 113 0 gusting 3 14.4
2019-Sep-16 07:19 091 0 gusting 2 14.4
2019-Sep-16 07:14 200 0 gusting 3 14.4
2019-Sep-16 07:09 131 0 gusting 3 14.4
2019-Sep-16 07:04 104 0 gusting 3 14.4
2019-Sep-16 06:59 093 1 gusting 3 14.4
2019-Sep-16 06:54 096 0 gusting 3 14.4
2019-Sep-16 06:49 105 0 gusting 3 14.4
2019-Sep-16 06:44 092 1 gusting 2 14.4
2019-Sep-16 06:39 088 0 gusting 2 14.4
2019-Sep-16 06:34 097 0 gusting 2 14.4
2019-Sep-16 06:29 093 1 gusting 3 14.4
2019-Sep-16 06:24 082 1 gusting 3 14.4
2019-Sep-16 06:19 113 0 gusting 3 14.4
2019-Sep-16 06:14 115 14.4
2019-Sep-16 06:09 011 14.4
2019-Sep-16 06:04 111 0 gusting 2 14.4
2019-Sep-16 05:59 238 0 gusting 2 14.4
2019-Sep-16 05:54 214 0 gusting 2 15.0
2019-Sep-16 05:49 210 0 gusting 3 15.0
2019-Sep-16 05:44 200 0 gusting 3 15.0
2019-Sep-16 05:39 116 0 gusting 3 15.0
2019-Sep-16 05:34 075 0 gusting 3 15.0
2019-Sep-16 05:29 100 0 gusting 1 15.0
2019-Sep-16 05:24 125 0 gusting 1 15.0
2019-Sep-16 05:19 091 0 gusting 3 15.0
2019-Sep-16 05:14 120 0 gusting 3 15.0
2019-Sep-16 05:09 140 0 gusting 1 15.0
2019-Sep-16 05:04 095 0 gusting 1 15.0
2019-Sep-16 04:59 093 0 gusting 1 15.0
2019-Sep-16 04:54 095 0 gusting 1 15.0
2019-Sep-16 04:49 068 0 gusting 2 15.0
2019-Sep-16 04:44 060 1 gusting 3 15.0
2019-Sep-16 04:39 055 1 gusting 3 15.0
2019-Sep-16 04:34 057 1 gusting 2 15.0
2019-Sep-16 04:29 061 0 gusting 2 15.0
2019-Sep-16 04:24 084 0 gusting 0 15.0
2019-Sep-16 04:19 064 0 gusting 1 15.0
2019-Sep-16 04:14 068 0 gusting 3 15.0
2019-Sep-16 04:09 063 0 gusting 3 15.0
2019-Sep-16 04:04 056 0 gusting 1 15.0
2019-Sep-16 03:59 063 0 gusting 1 15.0
2019-Sep-16 03:54 060 0 gusting 2 15.0
2019-Sep-16 03:49 106 0 gusting 2 15.0
2019-Sep-16 03:44 186 0 gusting 2 15.0
2019-Sep-16 03:39 105 15.0
2019-Sep-16 03:34 105 15.0
2019-Sep-16 03:29 105 0 gusting 1 15.0
2019-Sep-16 03:24 101 0 gusting 1 15.0
2019-Sep-16 03:19 145 15.0
2019-Sep-16 03:14 127 15.0
2019-Sep-16 03:09 073 15.0
2019-Sep-16 03:04 210 15.0
2019-Sep-16 02:59 144 15.0
2019-Sep-16 02:54 157 15.0
2019-Sep-16 02:49 160 0 gusting 4 15.6
2019-Sep-16 02:44 217 0 gusting 4 15.6
2019-Sep-16 02:39 228 15.6
2019-Sep-16 02:34 086 15.6
2019-Sep-16 02:29 080 0 gusting 3 15.6
2019-Sep-16 02:24 046 1 gusting 3 15.6
2019-Sep-16 02:19 043 1 gusting 3 15.6
2019-Sep-16 02:14 136 1 gusting 5 15.6
2019-Sep-16 02:09 083 2 gusting 5 15.6
2019-Sep-16 02:04 147 2 gusting 6 15.6
2019-Sep-16 01:59 101 4 gusting 7 15.6
2019-Sep-16 01:54 068 3 gusting 7 15.6
2019-Sep-16 01:49 108 1 gusting 6 15.6
2019-Sep-16 01:44 114 1 gusting 6 15.6
2019-Sep-16 01:39 250 1 gusting 6 15.6
2019-Sep-16 01:34 222 2 gusting 10 16.1
2019-Sep-16 01:29 161 2 gusting 10 16.1
2019-Sep-16 01:24 117 2 gusting 6 16.1
2019-Sep-16 01:19 200 2 gusting 6 16.1
2019-Sep-16 01:14 194 2 gusting 7 16.1
2019-Sep-16 01:09 118 2 gusting 7 16.1
2019-Sep-16 01:04 219 2 gusting 7 16.1
2019-Sep-16 00:59 229 2 gusting 7 16.1
2019-Sep-16 00:54 170 3 gusting 10 16.1
2019-Sep-16 00:49 153 3 gusting 10 16.1
2019-Sep-16 00:44 141 4 gusting 10 16.1
2019-Sep-16 00:39 155 3 gusting 10 16.1
2019-Sep-16 00:34 136 2 gusting 6 16.1
2019-Sep-16 00:29 141 3 gusting 10 16.1
2019-Sep-16 00:24 203 3 gusting 10 16.1
2019-Sep-16 00:19 188 3 gusting 10 16.1
2019-Sep-16 00:14 243 3 gusting 10 16.1
2019-Sep-16 00:09 219 2 gusting 7 16.1
2019-Sep-16 00:04 142 2 gusting 6 16.1
2019-Sep-15 23:59 164 2 gusting 6 16.1
2019-Sep-15 23:54 232 3 gusting 7 16.1
2019-Sep-15 23:49 138 2 gusting 7 16.1
2019-Sep-15 23:44 244 3 gusting 6 16.1
2019-Sep-15 23:39 131 3 gusting 9 16.1
2019-Sep-15 23:34 150 3 gusting 9 16.1
2019-Sep-15 23:29 272 4 gusting 10 16.1
2019-Sep-15 23:24 184 4 gusting 10 16.1
2019-Sep-15 23:19 157 5 gusting 10 16.1
2019-Sep-15 23:14 128 4 gusting 10 16.1
2019-Sep-15 23:09 143 3 gusting 7 16.1
2019-Sep-15 23:04 158 3 gusting 9 15.6
2019-Sep-15 22:59 259 4 gusting 14 15.6
2019-Sep-15 22:54 219 5 gusting 14 15.6
2019-Sep-15 22:49 233 4 gusting 13 15.6
2019-Sep-15 22:44 218 4 gusting 13 15.6
2019-Sep-15 22:39 236 4 gusting 13 15.6
2019-Sep-15 22:34 116 4 gusting 10 15.6
2019-Sep-15 22:29 153 4 gusting 11 15.6
2019-Sep-15 22:24 145 3 gusting 11 15.6
2019-Sep-15 22:19 133 3 gusting 11 15.6
2019-Sep-15 22:14 192 3 gusting 11 16.1
2019-Sep-15 22:09 233 2 gusting 9 16.1
2019-Sep-15 22:04 105 2 gusting 7 16.1
2019-Sep-15 21:59 222 2 gusting 7 16.1
2019-Sep-15 21:54 126 2 gusting 6 16.1
2019-Sep-15 21:49 166 2 gusting 7 16.1
2019-Sep-15 21:44 117 2 gusting 10 16.1
2019-Sep-15 21:39 179 3 gusting 10 16.1
2019-Sep-15 21:34 168 3 gusting 8 16.1
2019-Sep-15 21:29 216 4 gusting 11 16.1
2019-Sep-15 21:24 238 4 gusting 11 16.1
2019-Sep-15 21:19 111 4 gusting 13 16.1
2019-Sep-15 21:14 226 5 gusting 13 15.6
2019-Sep-15 21:09 148 5 gusting 13 15.6
2019-Sep-15 21:04 315 4 gusting 13 15.6
2019-Sep-15 20:59 207 4 gusting 12 15.6
2019-Sep-15 20:54 212 4 gusting 14 15.6
2019-Sep-15 20:49 211 4 gusting 14 15.6
2019-Sep-15 20:44 249 3 gusting 7 15.0
2019-Sep-15 20:39 228 2 gusting 9 15.0
2019-Sep-15 20:34 211 3 gusting 13 15.0
2019-Sep-15 20:29 116 4 gusting 13 15.0
2019-Sep-15 20:24 142 3 gusting 11 15.0
2019-Sep-15 20:19 259 3 gusting 13 14.4
2019-Sep-15 20:14 153 4 gusting 13 14.4
2019-Sep-15 20:09 130 3 gusting 10 14.4
2019-Sep-15 20:04 075 1 gusting 6 14.4